sensor_id;sensor_type;location;lat;lon;timestamp;pressure;altitude;pressure_sealevel;temperature;humidity
21182;BME280;10749;46.296;7.524;2022-08-05T00:01:17;95132.75;;;26.93;48.40
21182;BME280;10749;46.296;7.524;2022-08-05T00:03:44;95126.75;;;27.06;49.64
21182;BME280;10749;46.296;7.524;2022-08-05T00:06:09;95123.47;;;27.09;49.73
21182;BME280;10749;46.296;7.524;2022-08-05T00:08:35;95121.31;;;27.11;49.56
21182;BME280;10749;46.296;7.524;2022-08-05T00:11:04;95117.50;;;27.12;49.29
21182;BME280;10749;46.296;7.524;2022-08-05T00:13:31;95130.28;;;27.06;49.33
21182;BME280;10749;46.296;7.524;2022-08-05T00:15:57;95132.19;;;27.01;49.85
21182;BME280;10749;46.296;7.524;2022-08-05T00:18:22;95124.09;;;26.86;50.96
21182;BME280;10749;46.296;7.524;2022-08-05T00:20:48;95127.06;;;26.89;50.47
21182;BME280;10749;46.296;7.524;2022-08-05T00:23:13;95124.91;;;26.91;50.72
21182;BME280;10749;46.296;7.524;2022-08-05T00:25:39;95122.44;;;26.95;50.33
21182;BME280;10749;46.296;7.524;2022-08-05T00:28:04;95121.06;;;26.97;50.09
21182;BME280;10749;46.296;7.524;2022-08-05T00:30:29;95123.53;;;26.94;50.28
21182;BME280;10749;46.296;7.524;2022-08-05T00:32:54;95126.22;;;26.84;50.66
21182;BME280;10749;46.296;7.524;2022-08-05T00:35:20;95128.97;;;26.58;51.03
21182;BME280;10749;46.296;7.524;2022-08-05T00:37:45;95119.22;;;26.62;51.10
21182;BME280;10749;46.296;7.524;2022-08-05T00:40:11;95120.56;;;26.70;51.76
21182;BME280;10749;46.296;7.524;2022-08-05T00:42:37;95113.19;;;26.76;51.02
21182;BME280;10749;46.296;7.524;2022-08-05T00:45:05;95115.66;;;26.77;50.96
21182;BME280;10749;46.296;7.524;2022-08-05T00:47:31;95112.66;;;26.79;50.29
21182;BME280;10749;46.296;7.524;2022-08-05T00:49:56;95103.97;;;26.72;51.25
21182;BME280;10749;46.296;7.524;2022-08-05T00:52:22;95106.72;;;26.67;50.89
21182;BME280;10749;46.296;7.524;2022-08-05T00:54:47;95111.31;;;26.61;51.23
21182;BME280;10749;46.296;7.524;2022-08-05T00:57:13;95105.63;;;26.57;50.64
21182;BME280;10749;46.296;7.524;2022-08-05T00:59:38;95103.47;;;26.49;51.24
21182;BME280;10749;46.296;7.524;2022-08-05T01:02:03;95111.31;;;26.51;51.76
21182;BME280;10749;46.296;7.524;2022-08-05T01:04:29;95111.59;;;26.49;51.29
21182;BME280;10749;46.296;7.524;2022-08-05T01:06:54;95109.16;;;26.43;51.22
21182;BME280;10749;46.296;7.524;2022-08-05T01:09:19;95108.34;;;26.42;50.49
21182;BME280;10749;46.296;7.524;2022-08-05T01:11:50;95100.19;;;26.47;51.34
21182;BME280;10749;46.296;7.524;2022-08-05T01:14:36;95094.78;;;26.37;51.71
21182;BME280;10749;46.296;7.524;2022-08-05T01:19:51;95094.50;;;26.39;51.85
21182;BME280;10749;46.296;7.524;2022-08-05T01:24:56;95082.31;;;26.36;51.90
21182;BME280;10749;46.296;7.524;2022-08-05T01:30:15;95074.72;;;26.28;51.16
21182;BME280;10749;46.296;7.524;2022-08-05T01:32:44;95084.97;;;26.11;50.80
21182;BME280;10749;46.296;7.524;2022-08-05T01:35:15;95091.47;;;26.05;50.05
21182;BME280;10749;46.296;7.524;2022-08-05T01:37:52;95088.25;;;26.13;51.11
21182;BME280;10749;46.296;7.524;2022-08-05T01:40:22;95079.00;;;25.94;50.41
21182;BME280;10749;46.296;7.524;2022-08-05T01:42:51;95078.75;;;26.00;50.57
21182;BME280;10749;46.296;7.524;2022-08-05T01:45:19;95069.50;;;25.91;50.31
21182;BME280;10749;46.296;7.524;2022-08-05T01:47:47;95077.09;;;25.94;50.81
21182;BME280;10749;46.296;7.524;2022-08-05T01:50:18;95079.00;;;25.94;50.19
21182;BME280;10749;46.296;7.524;2022-08-05T01:52:46;95066.25;;;25.79;50.38
21182;BME280;10749;46.296;7.524;2022-08-05T01:55:14;95061.38;;;25.86;51.36
21182;BME280;10749;46.296;7.524;2022-08-05T01:57:44;95073.03;;;26.02;51.39
21182;BME280;10749;46.296;7.524;2022-08-05T02:00:11;95065.72;;;26.07;51.36
21182;BME280;10749;46.296;7.524;2022-08-05T02:02:40;95078.19;;;25.98;51.13
21182;BME280;10749;46.296;7.524;2022-08-05T02:05:10;95063.84;;;26.08;51.94
21182;BME280;10749;46.296;7.524;2022-08-05T02:07:36;95066.56;;;26.13;51.63
21182;BME280;10749;46.296;7.524;2022-08-05T02:10:03;95069.25;;;26.08;51.86
21182;BME280;10749;46.296;7.524;2022-08-05T02:15:34;95057.31;;;26.09;50.86
21182;BME280;10749;46.296;7.524;2022-08-05T02:18:06;95057.31;;;25.99;50.97
21182;BME280;10749;46.296;7.524;2022-08-05T02:20:47;95050.00;;;25.99;51.29
21182;BME280;10749;46.296;7.524;2022-08-05T02:23:14;95051.88;;;25.99;51.30
21182;BME280;10749;46.296;7.524;2022-08-05T02:25:44;95047.00;;;25.96;51.08
21182;BME280;10749;46.296;7.524;2022-08-05T02:28:12;95043.75;;;26.04;51.99
21182;BME280;10749;46.296;7.524;2022-08-05T02:30:44;95056.78;;;26.07;51.61
21182;BME280;10749;46.296;7.524;2022-08-05T02:33:14;95041.03;;;26.04;50.99
21182;BME280;10749;46.296;7.524;2022-08-05T02:35:41;95045.09;;;25.71;51.75
21182;BME280;10749;46.296;7.524;2022-08-05T02:38:09;95043.69;;;25.53;51.56
21182;BME280;10749;46.296;7.524;2022-08-05T02:40:35;95042.63;;;25.54;51.84
21182;BME280;10749;46.296;7.524;2022-08-05T02:43:03;95050.16;;;25.52;52.00
21182;BME280;10749;46.296;7.524;2022-08-05T02:45:30;95032.81;;;25.48;51.69
21182;BME280;10749;46.296;7.524;2022-08-05T02:47:59;95029.25;;;25.43;52.42
21182;BME280;10749;46.296;7.524;2022-08-05T02:50:26;95036.31;;;25.44;51.41
21182;BME280;10749;46.296;7.524;2022-08-05T02:52:52;95035.50;;;25.43;51.75
21182;BME280;10749;46.296;7.524;2022-08-05T02:55:18;95035.56;;;25.53;52.04
21182;BME280;10749;46.296;7.524;2022-08-05T02:57:45;95029.09;;;25.69;52.17
21182;BME280;10749;46.296;7.524;2022-08-05T03:00:11;95026.38;;;25.85;52.06
21182;BME280;10749;46.296;7.524;2022-08-05T03:02:39;95024.25;;;25.92;52.20
21182;BME280;10749;46.296;7.524;2022-08-05T03:05:08;95026.13;;;25.91;52.76
21182;BME280;10749;46.296;7.524;2022-08-05T03:07:35;95022.59;;;25.86;52.64
21182;BME280;10749;46.296;7.524;2022-08-05T03:10:02;95016.63;;;25.89;52.50
21182;BME280;10749;46.296;7.524;2022-08-05T03:14:53;95022.56;;;25.81;52.53
21182;BME280;10749;46.296;7.524;2022-08-05T03:17:19;95019.34;;;25.79;52.94
21182;BME280;10749;46.296;7.524;2022-08-05T03:19:44;95028.28;;;25.84;52.31
21182;BME280;10749;46.296;7.524;2022-08-05T03:22:09;95025.84;;;25.78;52.79
21182;BME280;10749;46.296;7.524;2022-08-05T03:24:35;95023.97;;;25.83;52.72
21182;BME280;10749;46.296;7.524;2022-08-05T03:27:00;95029.91;;;25.80;53.43
21182;BME280;10749;46.296;7.524;2022-08-05T03:29:26;95028.03;;;25.76;53.34
21182;BME280;10749;46.296;7.524;2022-08-05T03:31:51;95022.03;;;25.68;53.60
21182;BME280;10749;46.296;7.524;2022-08-05T03:34:17;95022.03;;;25.68;53.26
21182;BME280;10749;46.296;7.524;2022-08-05T03:36:43;95017.97;;;25.76;53.78
21182;BME280;10749;46.296;7.524;2022-08-05T03:39:08;95011.75;;;25.76;53.99
21182;BME280;10749;46.296;7.524;2022-08-05T03:41:33;95008.22;;;25.70;53.93
21182;BME280;10749;46.296;7.524;2022-08-05T03:43:59;95009.28;;;25.64;54.37
21182;BME280;10749;46.296;7.524;2022-08-05T03:46:24;95015.25;;;25.66;54.22
21182;BME280;10749;46.296;7.524;2022-08-05T03:48:50;95013.63;;;25.70;54.31
21182;BME280;10749;46.296;7.524;2022-08-05T03:51:23;95007.41;;;25.69;54.04
21182;BME280;10749;46.296;7.524;2022-08-05T03:54:08;95008.22;;;25.70;53.62
21182;BME280;10749;46.296;7.524;2022-08-05T03:56:41;95010.09;;;25.64;54.10
21182;BME280;10749;46.296;7.524;2022-08-05T03:59:15;95016.81;;;25.52;53.94
21182;BME280;10749;46.296;7.524;2022-08-05T04:01:43;95011.69;;;25.55;53.85
21182;BME280;10749;46.296;7.524;2022-08-05T04:04:11;95014.41;;;25.55;53.96
21182;BME280;10749;46.296;7.524;2022-08-05T04:06:38;95011.19;;;25.58;53.94
21182;BME280;10749;46.296;7.524;2022-08-05T04:09:04;95014.41;;;25.50;54.36
21182;BME280;10749;46.296;7.524;2022-08-05T04:11:33;95013.88;;;25.53;54.31
21182;BME280;10749;46.296;7.524;2022-08-05T04:13:59;95014.44;;;25.60;54.21
21182;BME280;10749;46.296;7.524;2022-08-05T04:16:25;95010.63;;;25.61;54.18
21182;BME280;10749;46.296;7.524;2022-08-05T04:18:50;95010.38;;;25.63;54.28
21182;BME280;10749;46.296;7.524;2022-08-05T04:21:16;95012.81;;;25.64;53.42
21182;BME280;10749;46.296;7.524;2022-08-05T04:23:41;95009.00;;;25.55;54.26
21182;BME280;10749;46.296;7.524;2022-08-05T04:26:07;95011.13;;;25.48;54.81
21182;BME280;10749;46.296;7.524;2022-08-05T04:28:33;95013.31;;;25.46;54.48
21182;BME280;10749;46.296;7.524;2022-08-05T04:30:58;95014.41;;;25.50;54.35
21182;BME280;10749;46.296;7.524;2022-08-05T04:33:24;95007.66;;;25.53;54.44
21182;BME280;10749;46.296;7.524;2022-08-05T04:35:50;95022.53;;;25.55;54.40
21182;BME280;10749;46.296;7.524;2022-08-05T04:38:15;95021.41;;;25.51;54.56
21182;BME280;10749;46.296;7.524;2022-08-05T04:40:40;95022.53;;;25.50;54.20
21182;BME280;10749;46.296;7.524;2022-08-05T04:43:06;95019.56;;;25.57;54.04
21182;BME280;10749;46.296;7.524;2022-08-05T04:45:32;95025.81;;;25.57;54.36
21182;BME280;10749;46.296;7.524;2022-08-05T04:48:12;95028.53;;;25.62;54.05
21182;BME280;10749;46.296;7.524;2022-08-05T04:50:45;95027.44;;;25.68;54.09
21182;BME280;10749;46.296;7.524;2022-08-05T04:53:12;95026.34;;;25.64;54.21
21182;BME280;10749;46.296;7.524;2022-08-05T04:55:38;95033.16;;;25.62;54.17
21182;BME280;10749;46.296;7.524;2022-08-05T04:58:05;95036.09;;;25.60;53.91
21182;BME280;10749;46.296;7.524;2022-08-05T05:00:32;95039.63;;;25.56;53.96
21182;BME280;10749;46.296;7.524;2022-08-05T05:02:58;95039.31;;;25.52;54.25
21182;BME280;10749;46.296;7.524;2022-08-05T05:05:23;95046.41;;;25.53;54.41
21182;BME280;10749;46.296;7.524;2022-08-05T05:07:48;95049.13;;;25.58;54.25
21182;BME280;10749;46.296;7.524;2022-08-05T05:10:13;95049.13;;;25.58;54.29
21182;BME280;10749;46.296;7.524;2022-08-05T05:12:39;95044.22;;;25.55;54.25
21182;BME280;10749;46.296;7.524;2022-08-05T05:15:05;95046.41;;;25.53;54.74
21182;BME280;10749;46.296;7.524;2022-08-05T05:17:40;95047.22;;;25.54;54.52
21182;BME280;10749;46.296;7.524;2022-08-05T05:20:08;95046.13;;;25.60;54.62
21182;BME280;10749;46.296;7.524;2022-08-05T05:22:34;95042.63;;;25.64;54.21
21182;BME280;10749;46.296;7.524;2022-08-05T05:24:59;95048.06;;;25.69;53.90
21182;BME280;10749;46.296;7.524;2022-08-05T05:27:27;95055.13;;;25.70;54.24
21182;BME280;10749;46.296;7.524;2022-08-05T05:29:52;95055.13;;;25.76;54.46
21182;BME280;10749;46.296;7.524;2022-08-05T05:32:18;95054.31;;;25.75;54.42
21182;BME280;10749;46.296;7.524;2022-08-05T05:34:43;95049.16;;;25.79;54.29
21182;BME280;10749;46.296;7.524;2022-08-05T05:37:08;95049.16;;;25.89;53.71
21182;BME280;10749;46.296;7.524;2022-08-05T05:39:33;95057.31;;;25.94;53.85
21182;BME280;10749;46.296;7.524;2022-08-05T05:41:59;95051.31;;;25.97;53.74
21182;BME280;10749;46.296;7.524;2022-08-05T05:44:24;95053.22;;;26.01;53.65
21182;BME280;10749;46.296;7.524;2022-08-05T05:46:50;95054.31;;;26.05;53.08
21182;BME280;10749;46.296;7.524;2022-08-05T05:49:15;95048.66;;;26.12;52.97
21182;BME280;10749;46.296;7.524;2022-08-05T05:51:40;95049.44;;;26.17;53.11
21182;BME280;10749;46.296;7.524;2022-08-05T05:54:06;95048.13;;;26.25;52.70
21182;BME280;10749;46.296;7.524;2022-08-05T05:56:31;95045.41;;;26.25;53.20
21182;BME280;10749;46.296;7.524;2022-08-05T05:58:56;95047.59;;;26.33;52.67
21182;BME280;10749;46.296;7.524;2022-08-05T06:01:21;95044.84;;;26.38;52.75
21182;BME280;10749;46.296;7.524;2022-08-05T06:03:47;95046.47;;;26.44;52.53
21182;BME280;10749;46.296;7.524;2022-08-05T06:06:12;95044.28;;;26.51;52.29
21182;BME280;10749;46.296;7.524;2022-08-05T06:08:37;95045.38;;;26.60;52.44
21182;BME280;10749;46.296;7.524;2022-08-05T06:11:03;95037.22;;;26.66;52.11
21182;BME280;10749;46.296;7.524;2022-08-05T06:13:28;95041.00;;;26.70;52.02
21182;BME280;10749;46.296;7.524;2022-08-05T06:15:53;95039.09;;;26.75;52.03
21182;BME280;10749;46.296;7.524;2022-08-05T06:18:19;95035.56;;;26.75;52.11
21182;BME280;10749;46.296;7.524;2022-08-05T06:20:44;95033.38;;;26.77;52.50
21182;BME280;10749;46.296;7.524;2022-08-05T06:23:09;95038.53;;;26.83;52.79
21182;BME280;10749;46.296;7.524;2022-08-05T06:25:34;95033.91;;;26.94;52.51
21182;BME280;10749;46.296;7.524;2022-08-05T06:28:00;95034.41;;;27.01;52.53
21182;BME280;10749;46.296;7.524;2022-08-05T06:30:25;95034.66;;;27.04;52.34
21182;BME280;10749;46.296;7.524;2022-08-05T06:32:51;95034.38;;;27.11;52.28
21182;BME280;10749;46.296;7.524;2022-08-05T06:35:17;95033.31;;;27.07;52.03
21182;BME280;10749;46.296;7.524;2022-08-05T06:37:43;95034.38;;;27.11;51.84
21182;BME280;10749;46.296;7.524;2022-08-05T06:40:09;95034.38;;;27.11;51.60
21182;BME280;10749;46.296;7.524;2022-08-05T06:42:35;95032.75;;;27.15;51.50
21182;BME280;10749;46.296;7.524;2022-08-05T06:45:00;95035.97;;;27.22;51.37
21182;BME280;10749;46.296;7.524;2022-08-05T06:47:26;95034.84;;;27.28;51.38
21182;BME280;10749;46.296;7.524;2022-08-05T06:49:51;95043.50;;;27.35;50.80
21182;BME280;10749;46.296;7.524;2022-08-05T06:52:17;95035.94;;;27.32;50.64
21182;BME280;10749;46.296;7.524;2022-08-05T06:54:42;95041.09;;;27.29;50.32
21182;BME280;10749;46.296;7.524;2022-08-05T06:57:07;95033.78;;;27.24;50.63
21182;BME280;10749;46.296;7.524;2022-08-05T06:59:32;95038.16;;;27.20;50.76
21182;BME280;10749;46.296;7.524;2022-08-05T07:01:58;95035.97;;;27.22;50.47
21182;BME280;10749;46.296;7.524;2022-08-05T07:04:23;95035.47;;;27.15;50.19
21182;BME280;10749;46.296;7.524;2022-08-05T07:06:48;95031.66;;;27.11;50.13
21182;BME280;10749;46.296;7.524;2022-08-05T07:09:14;95034.63;;;27.15;50.32
21182;BME280;10749;46.296;7.524;2022-08-05T07:11:39;95028.34;;;27.24;50.83
21182;BME280;10749;46.296;7.524;2022-08-05T07:14:04;95020.72;;;27.26;50.69
21182;BME280;10749;46.296;7.524;2022-08-05T07:16:48;95018.81;;;27.32;50.28
21182;BME280;10749;46.296;7.524;2022-08-05T07:19:18;95026.38;;;27.35;50.42
21182;BME280;10749;46.296;7.524;2022-08-05T07:21:45;95027.44;;;27.39;50.42
21182;BME280;10749;46.296;7.524;2022-08-05T07:24:10;95023.63;;;27.45;50.25
21182;BME280;10749;46.296;7.524;2022-08-05T07:26:36;95022.78;;;27.54;50.53
21182;BME280;10749;46.296;7.524;2022-08-05T07:29:02;95024.09;;;27.62;50.14
21182;BME280;10749;46.296;7.524;2022-08-05T07:31:27;95027.34;;;27.64;49.89
21182;BME280;10749;46.296;7.524;2022-08-05T07:33:52;95022.16;;;27.68;49.93
21182;BME280;10749;46.296;7.524;2022-08-05T07:36:18;95023.78;;;27.69;49.50
21182;BME280;10749;46.296;7.524;2022-08-05T07:38:43;95023.22;;;27.72;49.50
21182;BME280;10749;46.296;7.524;2022-08-05T07:41:13;95014.53;;;27.70;49.41
21182;BME280;10749;46.296;7.524;2022-08-05T07:43:39;95019.72;;;27.66;48.73
21182;BME280;10749;46.296;7.524;2022-08-05T07:46:04;95019.44;;;27.68;49.14
21182;BME280;10749;46.296;7.524;2022-08-05T07:48:29;95014.56;;;27.65;49.05
21182;BME280;10749;46.296;7.524;2022-08-05T07:50:55;95011.84;;;27.65;48.82
21182;BME280;10749;46.296;7.524;2022-08-05T07:53:20;95018.84;;;27.71;48.78
21182;BME280;10749;46.296;7.524;2022-08-05T07:55:45;95011.75;;;27.75;48.90
21182;BME280;10749;46.296;7.524;2022-08-05T07:58:11;95006.03;;;27.81;48.92
21182;BME280;10749;46.296;7.524;2022-08-05T08:00:36;95001.03;;;27.93;48.56
21182;BME280;10749;46.296;7.524;2022-08-05T08:03:01;95002.59;;;27.99;48.68
21182;BME280;10749;46.296;7.524;2022-08-05T08:05:27;94992.53;;;28.00;48.47
21182;BME280;10749;46.296;7.524;2022-08-05T08:07:52;94993.59;;;28.04;48.47
21182;BME280;10749;46.296;7.524;2022-08-05T08:10:21;94988.69;;;28.11;48.23
21182;BME280;10749;46.296;7.524;2022-08-05T08:12:48;94975.00;;;28.16;48.57
21182;BME280;10749;46.296;7.524;2022-08-05T08:15:13;94981.75;;;28.24;48.26
21182;BME280;10749;46.296;7.524;2022-08-05T08:17:39;94972.44;;;28.30;48.36
21182;BME280;10749;46.296;7.524;2022-08-05T08:20:04;94977.31;;;28.33;48.02
21182;BME280;10749;46.296;7.524;2022-08-05T08:22:31;94979.97;;;28.38;47.96
21182;BME280;10749;46.296;7.524;2022-08-05T08:24:56;94980.28;;;28.36;48.16
21182;BME280;10749;46.296;7.524;2022-08-05T08:27:22;94976.44;;;28.37;47.44
21182;BME280;10749;46.296;7.524;2022-08-05T08:29:47;94982.38;;;28.44;47.56
21182;BME280;10749;46.296;7.524;2022-08-05T08:32:12;94974.13;;;28.50;47.55
21182;BME280;10749;46.296;7.524;2022-08-05T08:34:38;94966.22;;;28.53;47.60
21182;BME280;10749;46.296;7.524;2022-08-05T08:37:03;94962.56;;;28.63;47.60
21182;BME280;10749;46.296;7.524;2022-08-05T08:39:28;94965.25;;;28.68;47.11
21182;BME280;10749;46.296;7.524;2022-08-05T08:41:54;94966.06;;;28.68;47.38
21182;BME280;10749;46.296;7.524;2022-08-05T08:44:23;94969.56;;;28.74;47.20
21182;BME280;10749;46.296;7.524;2022-08-05T08:46:49;94965.94;;;28.78;47.24
21182;BME280;10749;46.296;7.524;2022-08-05T08:49:18;94961.81;;;28.86;47.02
21182;BME280;10749;46.296;7.524;2022-08-05T08:51:48;94955.16;;;28.92;46.90
21182;BME280;10749;46.296;7.524;2022-08-05T08:54:14;94958.22;;;28.91;47.02
21182;BME280;10749;46.296;7.524;2022-08-05T08:56:40;94955.16;;;28.92;46.46
21182;BME280;10749;46.296;7.524;2022-08-05T08:59:05;94960.03;;;28.95;46.54
21182;BME280;10749;46.296;7.524;2022-08-05T09:01:31;94952.34;;;29.02;46.79
21182;BME280;10749;46.296;7.524;2022-08-05T09:03:57;94952.19;;;29.12;46.70
21182;BME280;10749;46.296;7.524;2022-08-05T09:06:25;94945.84;;;29.17;46.33
21182;BME280;10749;46.296;7.524;2022-08-05T09:08:51;94946.06;;;29.20;45.93
21182;BME280;10749;46.296;7.524;2022-08-05T09:11:16;94946.81;;;29.26;45.88
21182;BME280;10749;46.296;7.524;2022-08-05T09:13:42;94940.72;;;29.15;45.70
21182;BME280;10749;46.296;7.524;2022-08-05T09:16:07;94935.19;;;29.20;46.00
21182;BME280;10749;46.296;7.524;2022-08-05T09:18:36;94934.25;;;29.30;45.65
21182;BME280;10749;46.296;7.524;2022-08-05T09:21:03;94932.19;;;29.41;45.53
21182;BME280;10749;46.296;7.524;2022-08-05T09:23:28;94933.97;;;29.50;45.68
21182;BME280;10749;46.296;7.524;2022-08-05T09:26:13;94925.94;;;29.59;45.88
21182;BME280;10749;46.296;7.524;2022-08-05T09:28:42;94925.31;;;29.62;45.01
21182;BME280;10749;46.296;7.524;2022-08-05T09:31:09;94928.56;;;29.64;44.60
21182;BME280;10749;46.296;7.524;2022-08-05T09:33:54;94923.34;;;29.67;45.17
21182;BME280;10749;46.296;7.524;2022-08-05T09:36:20;94923.41;;;29.81;45.08
21182;BME280;10749;46.296;7.524;2022-08-05T09:38:57;94916.81;;;30.01;45.19
21182;BME280;10749;46.296;7.524;2022-08-05T09:41:23;94914.41;;;30.13;44.49
21182;BME280;10749;46.296;7.524;2022-08-05T09:43:48;94911.09;;;30.30;44.85
21182;BME280;10749;46.296;7.524;2022-08-05T09:46:29;94912.53;;;30.41;44.50
21182;BME280;10749;46.296;7.524;2022-08-05T09:48:56;94908.63;;;30.47;44.17
21182;BME280;10749;46.296;7.524;2022-08-05T09:51:36;94905.81;;;30.52;44.63
21182;BME280;10749;46.296;7.524;2022-08-05T09:54:06;94899.13;;;30.58;43.95
21182;BME280;10749;46.296;7.524;2022-08-05T09:56:35;94895.28;;;30.59;43.87
21182;BME280;10749;46.296;7.524;2022-08-05T09:59:06;94888.38;;;30.61;44.08
21182;BME280;10749;46.296;7.524;2022-08-05T10:01:33;94894.06;;;30.65;44.00
21182;BME280;10749;46.296;7.524;2022-08-05T10:04:08;94889.41;;;30.65;43.86
21182;BME280;10749;46.296;7.524;2022-08-05T10:06:37;94879.28;;;30.66;43.24
21182;BME280;10749;46.296;7.524;2022-08-05T10:09:15;94873.00;;;30.79;43.40
21182;BME280;10749;46.296;7.524;2022-08-05T10:11:42;94875.41;;;30.94;43.33
21182;BME280;10749;46.296;7.524;2022-08-05T10:14:25;94872.88;;;31.11;43.59
21182;BME280;10749;46.296;7.524;2022-08-05T10:16:51;94864.38;;;31.13;42.44
21182;BME280;10749;46.296;7.524;2022-08-05T10:19:22;94863.31;;;31.23;42.63
21182;BME280;10749;46.296;7.524;2022-08-05T10:21:47;94865.47;;;31.26;42.40
21182;BME280;10749;46.296;7.524;2022-08-05T10:24:15;94856.69;;;31.37;42.38
21182;BME280;10749;46.296;7.524;2022-08-05T10:26:43;94857.25;;;31.48;42.09
21182;BME280;10749;46.296;7.524;2022-08-05T10:29:08;94850.94;;;31.61;42.45
21182;BME280;10749;46.296;7.524;2022-08-05T10:31:36;94846.06;;;31.72;42.26
21182;BME280;10749;46.296;7.524;2022-08-05T10:34:03;94847.47;;;31.69;41.31
21182;BME280;10749;46.296;7.524;2022-08-05T10:36:29;94833.53;;;31.79;41.51
21182;BME280;10749;46.296;7.524;2022-08-05T10:39:04;94829.91;;;31.92;41.78
21182;BME280;10749;46.296;7.524;2022-08-05T10:41:38;94819.66;;;32.06;41.65
21182;BME280;10749;46.296;7.524;2022-08-05T10:44:12;94818.81;;;32.20;41.16
21182;BME280;10749;46.296;7.524;2022-08-05T10:46:48;94819.44;;;32.17;40.88
21182;BME280;10749;46.296;7.524;2022-08-05T10:49:15;94813.34;;;31.97;39.93
21182;BME280;10749;46.296;7.524;2022-08-05T10:51:45;94810.06;;;31.87;40.52
21182;BME280;10749;46.296;7.524;2022-08-05T10:54:12;94811.53;;;31.84;40.16
21182;BME280;10749;46.296;7.524;2022-08-05T10:56:52;94803.97;;;31.90;40.24
21182;BME280;10749;46.296;7.524;2022-08-05T11:02:05;94796.09;;;31.88;39.67
21182;BME280;10749;46.296;7.524;2022-08-05T11:04:41;94800.94;;;31.91;38.97
21182;BME280;10749;46.296;7.524;2022-08-05T11:07:07;94802.63;;;32.10;38.88
21182;BME280;10749;46.296;7.524;2022-08-05T11:12:05;94791.69;;;32.49;39.24
21182;BME280;10749;46.296;7.524;2022-08-05T11:17:41;94777.72;;;32.76;38.64
21182;BME280;10749;46.296;7.524;2022-08-05T11:20:31;94775.97;;;32.80;38.37
21182;BME280;10749;46.296;7.524;2022-08-05T11:22:58;94773.22;;;32.89;36.54
21182;BME280;10749;46.296;7.524;2022-08-05T11:25:37;94775.00;;;32.93;37.74
21182;BME280;10749;46.296;7.524;2022-08-05T11:33:32;94782.94;;;33.38;37.19
21182;BME280;10749;46.296;7.524;2022-08-05T11:36:02;94771.97;;;33.38;36.32
21182;BME280;10749;46.296;7.524;2022-08-05T11:41:06;94772.13;;;33.07;36.34
21182;BME280;10749;46.296;7.524;2022-08-05T11:43:33;94758.72;;;32.88;35.83
21182;BME280;10749;46.296;7.524;2022-08-05T11:45:59;94760.97;;;32.69;35.80
21182;BME280;10749;46.296;7.524;2022-08-05T11:48:25;94751.56;;;32.53;35.81
21182;BME280;10749;46.296;7.524;2022-08-05T11:50:52;94749.63;;;32.45;35.63
21182;BME280;10749;46.296;7.524;2022-08-05T11:53:18;94746.38;;;32.43;35.92
21182;BME280;10749;46.296;7.524;2022-08-05T11:56:00;94761.03;;;32.47;36.54
21182;BME280;10749;46.296;7.524;2022-08-05T11:58:37;94761.56;;;32.49;36.58
21182;BME280;10749;46.296;7.524;2022-08-05T12:01:15;94762.53;;;32.53;35.77
21182;BME280;10749;46.296;7.524;2022-08-05T12:03:49;94761.47;;;32.63;36.30
21182;BME280;10749;46.296;7.524;2022-08-05T12:06:23;94764.03;;;32.68;35.96
21182;BME280;10749;46.296;7.524;2022-08-05T12:08:56;94758.91;;;32.75;36.19
21182;BME280;10749;46.296;7.524;2022-08-05T12:11:24;94756.47;;;32.90;36.15
21182;BME280;10749;46.296;7.524;2022-08-05T12:14:02;94761.19;;;33.24;36.56
21182;BME280;10749;46.296;7.524;2022-08-05T12:16:42;94766.16;;;33.39;36.13
21182;BME280;10749;46.296;7.524;2022-08-05T12:19:09;94766.47;;;33.47;35.76
21182;BME280;10749;46.296;7.524;2022-08-05T12:22:04;94766.28;;;33.60;36.10
21182;BME280;10749;46.296;7.524;2022-08-05T12:24:30;94779.53;;;33.58;34.92
21182;BME280;10749;46.296;7.524;2022-08-05T12:26:55;94764.53;;;33.47;34.73
21182;BME280;10749;46.296;7.524;2022-08-05T12:29:22;94769.22;;;33.38;34.80
21182;BME280;10749;46.296;7.524;2022-08-05T12:31:50;94772.63;;;33.26;34.93
21182;BME280;10749;46.296;7.524;2022-08-05T12:34:17;94779.41;;;33.20;34.90
21182;BME280;10749;46.296;7.524;2022-08-05T12:36:44;94767.59;;;33.11;34.29
21182;BME280;10749;46.296;7.524;2022-08-05T12:39:11;94770.66;;;33.10;34.44
21182;BME280;10749;46.296;7.524;2022-08-05T12:41:38;94775.19;;;33.06;34.44
21182;BME280;10749;46.296;7.524;2022-08-05T12:44:12;94774.88;;;32.99;34.49
21182;BME280;10749;46.296;7.524;2022-08-05T12:46:40;94781.16;;;32.90;34.00
21182;BME280;10749;46.296;7.524;2022-08-05T12:49:08;94785.34;;;32.79;33.23
21182;BME280;10749;46.296;7.524;2022-08-05T12:51:49;94787.09;;;32.75;33.71
21182;BME280;10749;46.296;7.524;2022-08-05T12:54:25;94798.69;;;32.72;33.91
21182;BME280;10749;46.296;7.524;2022-08-05T12:56:53;94777.91;;;32.71;32.74
21182;BME280;10749;46.296;7.524;2022-08-05T12:59:24;94781.28;;;32.85;32.76
21182;BME280;10749;46.296;7.524;2022-08-05T13:02:04;94783.06;;;32.90;32.56
21182;BME280;10749;46.296;7.524;2022-08-05T13:04:35;94791.97;;;32.95;32.29
21182;BME280;10749;46.296;7.524;2022-08-05T13:07:04;94787.97;;;33.27;32.96
21182;BME280;10749;46.296;7.524;2022-08-05T13:09:32;94786.81;;;33.54;33.35
21182;BME280;10749;46.296;7.524;2022-08-05T13:12:04;94795.19;;;33.58;33.29
21182;BME280;10749;46.296;7.524;2022-08-05T13:14:41;94805.06;;;33.50;32.93
21182;BME280;10749;46.296;7.524;2022-08-05T13:19:40;94787.66;;;33.29;33.28
21182;BME280;10749;46.296;7.524;2022-08-05T13:22:06;94785.38;;;33.22;33.20
21182;BME280;10749;46.296;7.524;2022-08-05T13:24:31;94796.50;;;33.26;33.39
21182;BME280;10749;46.296;7.524;2022-08-05T13:26:56;94804.25;;;33.41;33.43
21182;BME280;10749;46.296;7.524;2022-08-05T13:29:22;94808.78;;;33.46;33.58
21182;BME280;10749;46.296;7.524;2022-08-05T13:31:48;94810.34;;;33.55;33.48
21182;BME280;10749;46.296;7.524;2022-08-05T13:34:13;94822.47;;;33.54;33.83
21182;BME280;10749;46.296;7.524;2022-08-05T13:36:39;94825.53;;;33.35;33.89